createdAt,value
2022-10-31T02:45:48.985Z,11.13
2022-10-31T02:48:22.324Z,11.13
2022-10-31T02:51:00.803Z,11.20
2022-10-31T02:53:35.239Z,11.25
2022-10-31T02:56:16.773Z,11.34
2022-10-31T02:58:51.099Z,11.41
2022-10-31T03:01:39.242Z,11.53
2022-10-31T03:04:36.639Z,11.64
2022-10-31T03:07:32.980Z,11.75
2022-10-31T03:10:28.458Z,11.84
2022-10-31T03:13:20.545Z,11.92
2022-10-31T03:15:54.219Z,12.00
2022-10-31T03:18:35.445Z,12.04
2022-10-31T03:21:22.594Z,12.11
2022-10-31T03:23:52.997Z,12.18
2022-10-31T03:26:22.939Z,12.26
2022-10-31T03:29:06.565Z,12.32
2022-10-31T03:31:54.996Z,12.38
2022-10-31T03:34:23.538Z,12.43
2022-10-31T03:36:55.435Z,12.49
2022-10-31T03:39:24.122Z,12.53
2022-10-31T03:42:08.816Z,12.58
2022-10-31T03:44:38.792Z,12.58
2022-10-31T03:47:07.566Z,12.59
2022-10-31T03:49:35.883Z,12.61
2022-10-31T03:52:23.995Z,12.58
2022-10-31T03:55:15.243Z,12.56
2022-10-31T04:00:51.909Z,12.46
2022-10-31T04:03:33.147Z,12.41
2022-10-31T04:06:08.299Z,12.38
2022-10-31T04:08:44.216Z,12.33
2022-10-31T04:11:16.189Z,12.31
2022-10-31T04:13:46.900Z,12.28
2022-10-31T04:16:17.651Z,12.28
2022-10-31T04:18:45.439Z,12.29
2022-10-31T04:21:13.084Z,12.29
2022-10-31T04:23:42.813Z,12.31
2022-10-31T04:26:18.059Z,12.33
2022-10-31T04:28:45.581Z,12.36
2022-10-31T04:31:15.303Z,12.40
2022-10-31T04:33:43.299Z,12.44
2022-10-31T04:36:11.225Z,12.49
2022-10-31T04:38:39.103Z,12.51
2022-10-31T04:41:08.608Z,12.54
2022-10-31T04:43:53.196Z,12.55
2022-10-31T04:46:20.960Z,12.55
2022-10-31T04:48:48.319Z,12.53
2022-10-31T04:51:16.798Z,12.52
2022-10-31T04:53:44.373Z,12.50
2022-10-31T04:56:30.051Z,12.47
2022-10-31T04:58:59.362Z,12.45
2022-10-31T05:01:29.020Z,12.42
2022-10-31T05:03:57.105Z,12.37
2022-10-31T05:06:24.880Z,12.33
2022-10-31T05:08:52.862Z,12.29
2022-10-31T05:11:20.752Z,12.26
2022-10-31T05:13:48.272Z,12.24
2022-10-31T05:16:15.566Z,12.22
2022-10-31T05:18:45.025Z,12.20
2022-10-31T05:21:12.915Z,12.20
2022-10-31T05:23:47.641Z,12.19
2022-10-31T05:26:15.383Z,12.18
2022-10-31T05:28:43.368Z,12.15
2022-10-31T05:31:12.128Z,12.15
2022-10-31T05:33:39.522Z,12.16
2022-10-31T05:36:25.647Z,12.21
2022-10-31T05:39:03.425Z,12.26
2022-10-31T05:41:38.890Z,12.34
2022-10-31T05:44:08.479Z,12.38
2022-10-31T05:46:38.047Z,12.43
2022-10-31T05:49:20.986Z,12.45
2022-10-31T05:52:07.004Z,12.46
2022-10-31T05:54:36.219Z,12.43
2022-10-31T05:57:03.850Z,12.40
2022-10-31T05:59:31.628Z,12.36
2022-10-31T06:01:59.144Z,12.34
2022-10-31T06:04:45.214Z,12.33
2022-10-31T06:07:13.175Z,12.28
2022-10-31T06:09:40.576Z,12.22
2022-10-31T06:12:08.490Z,12.17
2022-10-31T06:14:37.683Z,12.11
2022-10-31T06:17:05.420Z,12.07
2022-10-31T06:19:43.778Z,12.05
2022-10-31T06:22:13.270Z,12.04
2022-10-31T06:24:40.757Z,12.04
2022-10-31T06:27:10.144Z,12.05
2022-10-31T06:29:38.160Z,12.09
2022-10-31T06:32:12.057Z,12.12
2022-10-31T06:34:42.367Z,12.15
2022-10-31T06:37:12.406Z,12.19
2022-10-31T06:39:41.661Z,12.24
2022-10-31T06:42:10.307Z,12.32
2022-10-31T06:44:37.931Z,12.40
2022-10-31T06:47:24.086Z,12.45
2022-10-31T06:49:53.303Z,12.47
2022-10-31T06:52:23.841Z,12.49
2022-10-31T06:54:51.669Z,12.51
2022-10-31T06:57:19.661Z,12.53
2022-10-31T06:59:47.231Z,12.54
2022-10-31T07:02:22.731Z,12.56
2022-10-31T07:04:50.818Z,12.54
2022-10-31T07:07:20.813Z,12.51
2022-10-31T07:09:48.426Z,12.48
2022-10-31T07:12:17.375Z,12.44
2022-10-31T07:14:47.563Z,12.42
2022-10-31T07:17:16.285Z,12.39
2022-10-31T07:19:44.426Z,12.35
2022-10-31T07:22:12.309Z,12.37
2022-10-31T07:24:40.781Z,12.42
2022-10-31T07:27:13.732Z,12.47
2022-10-31T07:29:41.315Z,12.48
2022-10-31T07:32:09.358Z,12.50
2022-10-31T07:34:41.223Z,12.53
2022-10-31T07:37:12.277Z,12.59
2022-10-31T07:39:39.927Z,12.67
2022-10-31T07:42:07.690Z,12.76
2022-10-31T07:44:35.568Z,12.80
2022-10-31T07:47:21.294Z,12.82
2022-10-31T07:50:13.349Z,12.89
2022-10-31T07:53:09.474Z,12.94
2022-10-31T07:55:57.447Z,12.96
2022-10-31T07:58:27.051Z,12.97
2022-10-31T08:00:54.607Z,12.97
2022-10-31T08:03:24.106Z,12.96
2022-10-31T08:06:07.116Z,12.93
2022-10-31T08:08:53.137Z,12.89
2022-10-31T08:11:20.654Z,12.86
2022-10-31T08:13:48.376Z,12.85
2022-10-31T08:16:16.152Z,12.84
2022-10-31T08:18:45.250Z,12.84
2022-10-31T08:21:17.043Z,12.83
2022-10-31T08:23:50.986Z,12.80
2022-10-31T08:26:22.404Z,12.81
2022-10-31T08:28:52.979Z,12.78
2022-10-31T08:31:29.198Z,12.77
2022-10-31T08:34:14.492Z,12.78
2022-10-31T08:36:57.677Z,12.83
2022-10-31T08:39:30.465Z,12.84
2022-10-31T08:41:59.546Z,12.85
2022-10-31T08:44:35.120Z,12.91
2022-10-31T08:47:09.468Z,12.95
2022-10-31T08:49:47.330Z,12.98
2022-10-31T08:52:16.568Z,13.03
2022-10-31T08:54:47.921Z,13.02
2022-10-31T08:57:36.743Z,13.02
2022-10-31T09:00:10.964Z,12.99
2022-10-31T09:03:05.310Z,13.01
2022-10-31T09:05:37.326Z,13.02
2022-10-31T09:08:13.130Z,13.04
2022-10-31T09:10:42.938Z,13.04
2022-10-31T09:13:20.501Z,13.05
2022-10-31T09:16:07.974Z,13.07
2022-10-31T09:18:37.122Z,13.06
2022-10-31T09:21:10.674Z,13.08
2022-10-31T09:23:43.310Z,13.05
2022-10-31T09:26:16.618Z,13.06
2022-10-31T09:28:49.945Z,13.06
2022-10-31T09:31:22.168Z,13.07
2022-10-31T09:34:00.839Z,13.05
2022-10-31T09:36:37.672Z,13.04
2022-10-31T09:39:12.070Z,13.05
2022-10-31T09:42:09.977Z,13.08
2022-10-31T09:45:07.732Z,13.13
2022-10-31T09:47:52.846Z,13.17
2022-10-31T09:50:50.391Z,13.21
2022-10-31T09:53:48.140Z,13.27
2022-10-31T09:56:25.869Z,13.26
2022-10-31T09:59:02.710Z,13.24
2022-10-31T10:01:51.218Z,13.21
2022-10-31T10:05:00.516Z,13.22
2022-10-31T10:08:06.643Z,13.23
2022-10-31T10:10:58.325Z,13.24
2022-10-31T10:14:06.567Z,13.23
2022-10-31T10:17:19.330Z,13.23
2022-10-31T10:20:12.955Z,13.27
2022-10-31T10:23:22.127Z,13.26
2022-10-31T10:25:56.604Z,13.27
2022-10-31T10:28:33.667Z,13.27
2022-10-31T10:31:09.337Z,13.22
2022-10-31T10:33:54.646Z,13.19
2022-10-31T10:36:45.910Z,13.19
2022-10-31T10:39:40.360Z,13.20
2022-10-31T10:42:36.096Z,13.22
2022-10-31T10:45:38.328Z,13.27
2022-10-31T10:48:17.538Z,13.31
2022-10-31T10:50:55.552Z,13.36
2022-10-31T10:53:59.710Z,13.42
2022-10-31T10:56:48.231Z,13.44
2022-10-31T10:59:21.560Z,13.46
2022-10-31T11:01:52.141Z,13.44
2022-10-31T11:04:33.510Z,13.42
2022-10-31T11:07:10.799Z,13.40
2022-10-31T11:09:39.160Z,13.36
2022-10-31T11:12:23.947Z,13.31
2022-10-31T11:15:04.544Z,13.28
2022-10-31T11:17:36.658Z,13.21
2022-10-31T11:20:19.328Z,13.14
2022-10-31T11:22:49.147Z,13.11
2022-10-31T11:25:24.401Z,13.11
2022-10-31T11:28:03.284Z,13.14
2022-10-31T11:30:35.166Z,13.18
2022-10-31T11:33:03.463Z,13.22
2022-10-31T11:35:31.396Z,13.24
2022-10-31T11:38:02.643Z,13.26
2022-10-31T11:40:30.429Z,13.30
2022-10-31T11:42:59.953Z,13.37
2022-10-31T11:45:34.258Z,13.42
2022-10-31T11:48:03.968Z,13.47
2022-10-31T11:50:37.158Z,13.49
2022-10-31T11:53:13.767Z,13.51
2022-10-31T11:55:41.472Z,13.47
2022-10-31T11:58:25.643Z,13.48
2022-10-31T12:00:57.828Z,13.46
2022-10-31T12:03:51.755Z,13.43
2022-10-31T12:06:31.048Z,13.43
2022-10-31T12:08:58.599Z,13.43
2022-10-31T12:12:01.917Z,13.43
2022-10-31T12:14:54.516Z,13.41
2022-10-31T12:17:42.182Z,13.37
2022-10-31T12:20:56.260Z,13.35
2022-10-31T12:23:47.265Z,13.35
2022-10-31T12:26:22.818Z,13.33
2022-10-31T12:29:07.795Z,13.33
2022-10-31T12:32:00.561Z,13.35
2022-10-31T12:34:51.705Z,13.36
2022-10-31T12:37:49.116Z,13.45
2022-10-31T12:40:45.683Z,13.50
2022-10-31T12:43:47.975Z,13.55
2022-10-31T12:46:26.483Z,13.59
2022-10-31T12:49:08.484Z,13.58
2022-10-31T12:52:16.171Z,13.64
2022-10-31T12:55:26.914Z,13.66
2022-10-31T12:58:05.984Z,13.62
2022-10-31T13:00:35.784Z,13.54
2022-10-31T13:03:23.937Z,13.44
2022-10-31T13:05:56.897Z,13.35
2022-10-31T13:08:29.993Z,13.30
2022-10-31T13:11:19.592Z,13.28
2022-10-31T13:14:21.562Z,13.27
2022-10-31T13:16:50.791Z,13.24
2022-10-31T13:19:38.773Z,13.20
2022-10-31T13:22:23.261Z,13.19
2022-10-31T13:25:11.666Z,13.21
2022-10-31T13:27:59.774Z,13.24
2022-10-31T13:30:32.508Z,13.28
2022-10-31T13:33:17.756Z,13.33
2022-10-31T13:36:07.313Z,13.41
2022-10-31T13:38:43.120Z,13.47
2022-10-31T13:41:48.074Z,13.51
2022-10-31T13:44:26.208Z,13.54
2022-10-31T13:46:56.845Z,13.57
2022-10-31T13:49:32.963Z,13.59
2022-10-31T13:52:17.235Z,13.62
2022-10-31T13:54:52.612Z,13.62
2022-10-31T13:57:34.945Z,13.62
2022-10-31T14:00:23.283Z,13.60
2022-10-31T14:02:54.896Z,13.63
2022-10-31T14:05:33.276Z,13.64
2022-10-31T14:08:05.070Z,13.66
2022-10-31T14:10:43.577Z,13.66
2022-10-31T14:13:25.746Z,13.59
2022-10-31T14:16:03.346Z,13.54
2022-10-31T14:18:44.862Z,13.45
2022-10-31T14:21:31.980Z,13.41
2022-10-31T14:23:59.712Z,13.38
2022-10-31T14:26:32.107Z,13.36
2022-10-31T14:29:17.535Z,13.36
2022-10-31T14:31:55.700Z,13.30
2022-10-31T14:34:35.365Z,13.31
2022-10-31T14:37:36.444Z,13.32
2022-10-31T14:40:19.236Z,13.35
2022-10-31T14:43:33.197Z,13.40
2022-10-31T14:46:17.863Z,13.42
2022-10-31T14:49:17.948Z,13.47
2022-10-31T14:51:51.182Z,13.50
2022-10-31T14:54:37.688Z,13.52
2022-10-31T14:57:16.785Z,13.49
2022-10-31T14:59:50.295Z,13.41
2022-10-31T15:02:27.067Z,13.36
2022-10-31T15:05:00.402Z,13.35
2022-10-31T15:07:37.396Z,13.35
2022-10-31T15:10:30.775Z,13.34
2022-10-31T15:13:17.381Z,13.39
2022-10-31T15:15:51.222Z,13.41
2022-10-31T15:18:22.106Z,13.38
2022-10-31T15:20:53.023Z,13.41
2022-10-31T15:23:31.985Z,13.35
2022-10-31T15:26:06.436Z,13.33
2022-10-31T15:28:39.127Z,13.32
2022-10-31T15:31:18.580Z,13.28
2022-10-31T15:33:50.581Z,13.23
2022-10-31T15:36:29.285Z,13.18
2022-10-31T15:38:58.078Z,13.14
2022-10-31T15:41:54.850Z,13.15
2022-10-31T15:44:32.901Z,13.16
2022-10-31T15:47:09.322Z,13.16
2022-10-31T15:49:56.238Z,13.15
2022-10-31T15:52:47.089Z,13.19
2022-10-31T15:55:21.175Z,13.26
2022-10-31T15:57:53.803Z,13.28
2022-10-31T16:00:37.873Z,13.29
2022-10-31T16:03:16.773Z,13.34
2022-10-31T16:05:55.845Z,13.42
2022-10-31T16:08:36.261Z,13.47
2022-10-31T16:11:21.160Z,13.48
2022-10-31T16:14:11.690Z,13.50
2022-10-31T16:16:50.049Z,13.50
2022-10-31T16:19:22.963Z,13.50
2022-10-31T16:21:58.376Z,13.49
2022-10-31T16:24:33.489Z,13.47
2022-10-31T16:27:09.044Z,13.49
2022-10-31T16:29:46.634Z,13.48
2022-10-31T16:32:34.616Z,13.45
2022-10-31T16:35:12.914Z,13.42
2022-10-31T16:37:44.680Z,13.41
2022-10-31T16:40:14.634Z,13.37
2022-10-31T16:42:45.023Z,13.35
2022-10-31T16:45:22.456Z,13.31
2022-10-31T16:47:51.186Z,13.25
2022-10-31T16:50:24.262Z,13.22
2022-10-31T16:55:22.157Z,13.22
2022-10-31T16:57:53.225Z,13.23
2022-10-31T17:00:24.503Z,13.27
2022-10-31T17:02:54.534Z,13.33
2022-10-31T17:05:24.868Z,13.41
2022-10-31T17:07:53.711Z,13.46
2022-10-31T17:10:21.063Z,13.45
2022-10-31T17:12:50.352Z,13.49
2022-10-31T17:15:29.078Z,13.50
2022-10-31T17:17:56.948Z,13.52
2022-10-31T17:20:28.382Z,13.50
2022-10-31T17:22:58.514Z,13.49
2022-10-31T17:25:31.261Z,13.46
2022-10-31T17:27:59.263Z,13.43
2022-10-31T17:30:26.741Z,13.40
2022-10-31T17:32:54.972Z,13.40
2022-10-31T17:35:23.020Z,13.36
2022-10-31T17:37:50.852Z,13.30
2022-10-31T17:40:21.260Z,13.24
2022-10-31T17:42:51.464Z,13.19
2022-10-31T17:45:20.007Z,13.19
2022-10-31T17:47:49.384Z,13.15
2022-10-31T17:50:19.920Z,13.10
2022-10-31T17:52:48.647Z,13.06
2022-10-31T17:55:16.688Z,12.99
2022-10-31T17:57:45.243Z,12.95
2022-10-31T18:00:17.887Z,12.95
2022-10-31T18:02:45.465Z,12.95
2022-10-31T18:05:13.337Z,12.96
2022-10-31T18:07:40.804Z,13.01
2022-10-31T18:10:09.612Z,13.07
2022-10-31T18:12:38.025Z,13.12
2022-10-31T18:15:06.826Z,13.16
2022-10-31T18:17:35.932Z,13.17
2022-10-31T18:20:04.628Z,13.19
2022-10-31T18:22:32.445Z,13.20
2022-10-31T18:25:02.171Z,13.17
2022-10-31T18:27:29.448Z,13.13
2022-10-31T18:29:56.868Z,13.06
2022-10-31T18:32:24.648Z,13.01
2022-10-31T18:34:52.147Z,12.98
2022-10-31T18:37:19.708Z,12.92
2022-10-31T18:39:47.183Z,12.91
2022-10-31T18:42:14.698Z,12.88
2022-10-31T18:44:42.252Z,12.84
2022-10-31T18:47:09.604Z,12.81
2022-10-31T18:49:37.280Z,12.78
2022-10-31T18:52:04.888Z,12.77
2022-10-31T18:54:32.474Z,12.71
2022-10-31T18:57:00.096Z,12.68
2022-10-31T18:59:27.815Z,12.68
2022-10-31T19:01:57.349Z,12.70
2022-10-31T19:04:25.134Z,12.69
2022-10-31T19:06:52.643Z,12.74
2022-10-31T19:09:20.263Z,12.75
2022-10-31T19:11:47.988Z,12.76
2022-10-31T19:14:15.678Z,12.77
2022-10-31T19:16:43.119Z,12.80
2022-10-31T19:19:10.732Z,12.84
2022-10-31T19:21:38.303Z,12.85
2022-10-31T19:24:06.277Z,12.87
2022-10-31T19:26:34.474Z,12.87
2022-10-31T19:29:02.293Z,12.89
2022-10-31T19:31:30.516Z,12.91
2022-10-31T19:33:58.046Z,12.90
2022-10-31T19:36:26.358Z,12.88
2022-10-31T19:38:54.159Z,12.87
2022-10-31T19:41:28.073Z,12.83
2022-10-31T19:44:00.664Z,12.79
2022-10-31T19:46:48.166Z,12.71
2022-10-31T19:48:59.200Z,12.69
2022-10-31T19:51:27.165Z,12.66
2022-10-31T19:53:54.978Z,12.64
2022-10-31T19:56:24.919Z,12.61
2022-10-31T19:58:52.575Z,12.60
2022-10-31T20:01:23.208Z,12.59
2022-10-31T20:03:51.349Z,12.58
2022-10-31T20:06:28.074Z,12.61
2022-10-31T20:08:56.719Z,12.66
2022-10-31T20:11:26.849Z,12.70
2022-10-31T20:13:59.343Z,12.75
2022-10-31T20:16:28.291Z,12.80
2022-10-31T20:18:58.637Z,12.83
2022-10-31T20:21:28.745Z,12.87
2022-10-31T20:24:01.904Z,12.92
2022-10-31T20:26:30.455Z,12.94
2022-10-31T20:28:59.801Z,12.96
2022-10-31T20:31:32.121Z,12.94
2022-10-31T20:34:00.283Z,12.92
2022-10-31T20:36:29.086Z,12.93
2022-10-31T20:38:58.200Z,12.92
2022-10-31T20:41:26.421Z,12.93
2022-10-31T20:43:54.439Z,12.94
2022-10-31T20:46:26.378Z,12.93
2022-10-31T20:48:54.465Z,12.92
2022-10-31T20:51:27.386Z,12.91
2022-10-31T20:54:01.429Z,12.87
2022-10-31T20:56:29.438Z,12.85
2022-10-31T20:58:57.673Z,12.79
2022-10-31T21:01:29.029Z,12.73
2022-10-31T21:03:58.244Z,12.64
2022-10-31T21:06:26.342Z,12.54
2022-10-31T21:08:55.081Z,12.47
2022-10-31T21:11:25.956Z,12.46
2022-10-31T21:13:53.658Z,12.46
2022-10-31T21:16:25.723Z,12.49
2022-10-31T21:18:54.511Z,12.51
2022-10-31T21:21:32.020Z,12.54
2022-10-31T21:24:05.036Z,12.57
2022-10-31T21:26:37.053Z,12.64
2022-10-31T21:29:06.846Z,12.70
2022-10-31T21:31:36.360Z,12.74
2022-10-31T21:34:04.561Z,12.78
2022-10-31T21:36:33.949Z,12.80
2022-10-31T21:39:02.024Z,12.82
2022-10-31T21:41:29.385Z,12.82
2022-10-31T21:43:57.197Z,12.82
2022-10-31T21:46:31.024Z,12.81
2022-10-31T21:49:00.932Z,12.81
2022-10-31T21:51:32.855Z,12.80
2022-10-31T21:54:19.149Z,12.77
2022-10-31T21:56:47.493Z,12.77
2022-10-31T21:59:15.050Z,12.74
2022-10-31T22:01:42.906Z,12.70
2022-10-31T22:04:10.758Z,12.64
2022-10-31T22:06:38.569Z,12.62
2022-10-31T22:09:09.767Z,12.59
2022-10-31T22:11:37.349Z,12.58
2022-10-31T22:14:05.123Z,12.56
2022-10-31T22:16:35.920Z,12.58
2022-10-31T22:19:06.086Z,12.60
2022-10-31T22:21:46.821Z,12.62
2022-10-31T22:24:16.129Z,12.62
2022-10-31T22:26:44.073Z,12.65
2022-10-31T22:29:15.491Z,12.70
2022-10-31T22:31:48.485Z,12.76
2022-10-31T22:34:16.641Z,12.81
2022-10-31T22:36:44.227Z,12.84
2022-10-31T22:39:13.478Z,12.85
2022-10-31T22:41:41.305Z,12.88
2022-10-31T22:44:08.825Z,12.92
2022-10-31T22:46:38.847Z,12.94
2022-10-31T22:49:10.910Z,12.93
2022-10-31T22:51:39.702Z,12.91
2022-10-31T22:54:14.177Z,12.90
2022-10-31T22:56:41.826Z,12.85
2022-10-31T22:59:13.080Z,12.83
2022-10-31T23:01:41.276Z,12.81
2022-10-31T23:04:09.418Z,12.79
2022-10-31T23:06:37.608Z,12.77
2022-10-31T23:09:06.830Z,12.75
2022-10-31T23:11:40.747Z,12.71
2022-10-31T23:14:13.502Z,12.69
2022-10-31T23:16:53.856Z,12.65
2022-10-31T23:19:28.781Z,12.63
2022-10-31T23:22:01.342Z,12.61
2022-10-31T23:24:40.116Z,12.63
2022-10-31T23:27:17.879Z,12.66
2022-10-31T23:29:55.323Z,12.69
2022-10-31T23:32:28.008Z,12.74
2022-10-31T23:35:02.200Z,12.77
2022-10-31T23:37:33.345Z,12.83
2022-10-31T23:40:00.916Z,12.87
2022-10-31T23:42:28.872Z,12.93
2022-10-31T23:44:56.429Z,12.96
2022-10-31T23:47:24.461Z,12.97
2022-10-31T23:49:51.956Z,12.98
2022-10-31T23:52:19.784Z,12.98
2022-10-31T23:54:47.789Z,12.99
2022-10-31T23:57:16.919Z,12.98
2022-10-31T23:59:44.414Z,12.95
